sensor_id;sensor_type;location;lat;lon;timestamp;temperature;humidity
46976;DHT22;32724;51.094;6.996;2023-07-28T00:00:06;16.90;99.90
46976;DHT22;32724;51.094;6.996;2023-07-28T00:02:32;16.90;99.90
46976;DHT22;32724;51.094;6.996;2023-07-28T00:04:57;16.80;99.90
46976;DHT22;32724;51.094;6.996;2023-07-28T00:07:23;16.90;99.90
46976;DHT22;32724;51.094;6.996;2023-07-28T00:09:49;16.90;99.90
46976;DHT22;32724;51.094;6.996;2023-07-28T00:12:14;16.80;99.90
46976;DHT22;32724;51.094;6.996;2023-07-28T00:14:40;16.80;99.90
46976;DHT22;32724;51.094;6.996;2023-07-28T00:17:05;16.80;99.90
46976;DHT22;32724;51.094;6.996;2023-07-28T00:19:31;16.80;99.90
46976;DHT22;32724;51.094;6.996;2023-07-28T00:21:57;16.90;99.90
46976;DHT22;32724;51.094;6.996;2023-07-28T00:24:22;16.90;99.90
46976;DHT22;32724;51.094;6.996;2023-07-28T00:26:48;16.80;99.90
46976;DHT22;32724;51.094;6.996;2023-07-28T00:29:13;16.80;99.90
46976;DHT22;32724;51.094;6.996;2023-07-28T00:31:39;16.80;99.90
46976;DHT22;32724;51.094;6.996;2023-07-28T00:34:04;16.80;99.90
46976;DHT22;32724;51.094;6.996;2023-07-28T00:36:31;16.80;99.90
46976;DHT22;32724;51.094;6.996;2023-07-28T00:38:57;16.90;99.90
46976;DHT22;32724;51.094;6.996;2023-07-28T00:41:23;16.90;99.90
46976;DHT22;32724;51.094;6.996;2023-07-28T00:43:48;16.90;99.90
46976;DHT22;32724;51.094;6.996;2023-07-28T00:46:15;16.90;99.90
46976;DHT22;32724;51.094;6.996;2023-07-28T00:48:41;16.90;99.90
46976;DHT22;32724;51.094;6.996;2023-07-28T00:51:07;16.90;99.90
46976;DHT22;32724;51.094;6.996;2023-07-28T00:53:34;16.90;99.90
46976;DHT22;32724;51.094;6.996;2023-07-28T00:56:00;16.90;99.90
46976;DHT22;32724;51.094;6.996;2023-07-28T00:58:27;16.90;99.90
46976;DHT22;32724;51.094;6.996;2023-07-28T01:00:53;16.90;99.90
46976;DHT22;32724;51.094;6.996;2023-07-28T01:03:19;17.00;99.90
46976;DHT22;32724;51.094;6.996;2023-07-28T01:06:01;17.00;99.90
46976;DHT22;32724;51.094;6.996;2023-07-28T01:09:00;17.00;99.90
46976;DHT22;32724;51.094;6.996;2023-07-28T01:11:26;17.00;99.90
46976;DHT22;32724;51.094;6.996;2023-07-28T01:13:52;17.00;99.90
46976;DHT22;32724;51.094;6.996;2023-07-28T01:16:18;17.00;99.90
46976;DHT22;32724;51.094;6.996;2023-07-28T01:18:43;17.00;99.90
46976;DHT22;32724;51.094;6.996;2023-07-28T01:21:14;17.00;99.90
46976;DHT22;32724;51.094;6.996;2023-07-28T01:26:36;17.00;99.90
46976;DHT22;32724;51.094;6.996;2023-07-28T01:29:03;17.00;99.90
46976;DHT22;32724;51.094;6.996;2023-07-28T01:31:29;17.00;99.90
46976;DHT22;32724;51.094;6.996;2023-07-28T01:33:55;17.10;99.90
46976;DHT22;32724;51.094;6.996;2023-07-28T01:36:20;17.10;99.90
46976;DHT22;32724;51.094;6.996;2023-07-28T01:38:46;17.00;99.90
46976;DHT22;32724;51.094;6.996;2023-07-28T01:41:11;17.00;99.90
46976;DHT22;32724;51.094;6.996;2023-07-28T01:43:37;17.00;99.90
46976;DHT22;32724;51.094;6.996;2023-07-28T01:46:03;17.00;99.90
46976;DHT22;32724;51.094;6.996;2023-07-28T01:48:29;17.00;99.90
46976;DHT22;32724;51.094;6.996;2023-07-28T01:50:54;17.00;99.90
46976;DHT22;32724;51.094;6.996;2023-07-28T01:53:21;17.00;99.90
46976;DHT22;32724;51.094;6.996;2023-07-28T01:55:46;17.10;99.90
46976;DHT22;32724;51.094;6.996;2023-07-28T01:58:12;17.10;99.90
46976;DHT22;32724;51.094;6.996;2023-07-28T02:00:37;17.10;99.90
46976;DHT22;32724;51.094;6.996;2023-07-28T02:03:03;17.00;99.90
46976;DHT22;32724;51.094;6.996;2023-07-28T02:05:29;17.00;99.90
46976;DHT22;32724;51.094;6.996;2023-07-28T02:07:55;17.00;99.90
46976;DHT22;32724;51.094;6.996;2023-07-28T02:10:22;17.00;99.90
46976;DHT22;32724;51.094;6.996;2023-07-28T02:12:49;17.00;99.90
46976;DHT22;32724;51.094;6.996;2023-07-28T02:15:15;17.10;99.90
46976;DHT22;32724;51.094;6.996;2023-07-28T02:17:41;17.00;99.90
46976;DHT22;32724;51.094;6.996;2023-07-28T02:20:07;17.00;99.90
46976;DHT22;32724;51.094;6.996;2023-07-28T02:22:36;17.10;99.90
46976;DHT22;32724;51.094;6.996;2023-07-28T02:25:02;17.00;99.90
46976;DHT22;32724;51.094;6.996;2023-07-28T02:27:28;17.10;99.90
46976;DHT22;32724;51.094;6.996;2023-07-28T02:29:54;17.00;99.90
46976;DHT22;32724;51.094;6.996;2023-07-28T02:32:19;17.00;99.90
46976;DHT22;32724;51.094;6.996;2023-07-28T02:34:45;17.00;99.90
46976;DHT22;32724;51.094;6.996;2023-07-28T02:37:11;17.00;99.90
46976;DHT22;32724;51.094;6.996;2023-07-28T02:39:36;17.00;99.90
46976;DHT22;32724;51.094;6.996;2023-07-28T02:42:02;17.00;99.90
46976;DHT22;32724;51.094;6.996;2023-07-28T02:44:28;17.10;99.90
46976;DHT22;32724;51.094;6.996;2023-07-28T02:46:53;17.00;99.90
46976;DHT22;32724;51.094;6.996;2023-07-28T02:49:19;17.00;99.90
46976;DHT22;32724;51.094;6.996;2023-07-28T02:51:44;17.00;99.90
46976;DHT22;32724;51.094;6.996;2023-07-28T02:54:10;17.00;99.90
46976;DHT22;32724;51.094;6.996;2023-07-28T02:56:35;17.10;99.90
46976;DHT22;32724;51.094;6.996;2023-07-28T02:59:04;17.00;99.90
46976;DHT22;32724;51.094;6.996;2023-07-28T03:01:30;17.00;99.90
46976;DHT22;32724;51.094;6.996;2023-07-28T03:06:31;17.10;99.90
46976;DHT22;32724;51.094;6.996;2023-07-28T03:08:58;17.10;99.90
46976;DHT22;32724;51.094;6.996;2023-07-28T03:11:24;17.10;99.90
46976;DHT22;32724;51.094;6.996;2023-07-28T03:13:50;17.10;99.90
46976;DHT22;32724;51.094;6.996;2023-07-28T03:16:15;17.10;99.90
46976;DHT22;32724;51.094;6.996;2023-07-28T03:18:41;17.10;99.90
46976;DHT22;32724;51.094;6.996;2023-07-28T03:21:08;17.10;99.90
46976;DHT22;32724;51.094;6.996;2023-07-28T03:23:33;17.20;99.90
46976;DHT22;32724;51.094;6.996;2023-07-28T03:25:59;17.10;99.90
46976;DHT22;32724;51.094;6.996;2023-07-28T03:28:24;17.10;99.90
46976;DHT22;32724;51.094;6.996;2023-07-28T03:30:50;17.10;99.90
46976;DHT22;32724;51.094;6.996;2023-07-28T03:33:15;17.20;99.90
46976;DHT22;32724;51.094;6.996;2023-07-28T03:35:41;17.10;99.90
46976;DHT22;32724;51.094;6.996;2023-07-28T03:38:06;17.10;99.90
46976;DHT22;32724;51.094;6.996;2023-07-28T03:40:32;17.10;99.90
46976;DHT22;32724;51.094;6.996;2023-07-28T03:42:57;17.10;99.90
46976;DHT22;32724;51.094;6.996;2023-07-28T03:45:23;17.20;99.90
46976;DHT22;32724;51.094;6.996;2023-07-28T03:47:49;17.10;99.90
46976;DHT22;32724;51.094;6.996;2023-07-28T03:50:14;17.20;99.90
46976;DHT22;32724;51.094;6.996;2023-07-28T03:52:40;17.10;99.90
46976;DHT22;32724;51.094;6.996;2023-07-28T03:55:05;17.10;99.90
46976;DHT22;32724;51.094;6.996;2023-07-28T03:57:31;17.20;99.90
46976;DHT22;32724;51.094;6.996;2023-07-28T03:59:56;17.20;99.90
46976;DHT22;32724;51.094;6.996;2023-07-28T04:02:22;17.20;99.90
46976;DHT22;32724;51.094;6.996;2023-07-28T04:04:53;17.10;99.90
46976;DHT22;32724;51.094;6.996;2023-07-28T04:07:20;17.20;99.90
46976;DHT22;32724;51.094;6.996;2023-07-28T04:09:46;17.20;99.90
46976;DHT22;32724;51.094;6.996;2023-07-28T04:12:11;17.20;99.90
46976;DHT22;32724;51.094;6.996;2023-07-28T04:14:37;17.20;99.90
46976;DHT22;32724;51.094;6.996;2023-07-28T04:17:03;17.20;99.90
46976;DHT22;32724;51.094;6.996;2023-07-28T04:19:28;17.20;99.90
46976;DHT22;32724;51.094;6.996;2023-07-28T04:21:56;17.20;99.90
46976;DHT22;32724;51.094;6.996;2023-07-28T04:24:21;17.20;99.90
46976;DHT22;32724;51.094;6.996;2023-07-28T04:26:47;17.20;99.90
46976;DHT22;32724;51.094;6.996;2023-07-28T04:29:16;17.20;99.90
46976;DHT22;32724;51.094;6.996;2023-07-28T04:31:41;17.30;99.90
46976;DHT22;32724;51.094;6.996;2023-07-28T04:34:07;17.30;99.90
46976;DHT22;32724;51.094;6.996;2023-07-28T04:36:32;17.30;99.90
46976;DHT22;32724;51.094;6.996;2023-07-28T04:38:58;17.30;99.90
46976;DHT22;32724;51.094;6.996;2023-07-28T04:41:23;17.30;99.90
46976;DHT22;32724;51.094;6.996;2023-07-28T04:43:49;17.30;99.90
46976;DHT22;32724;51.094;6.996;2023-07-28T04:46:15;17.30;99.90
46976;DHT22;32724;51.094;6.996;2023-07-28T04:48:40;17.30;99.90
46976;DHT22;32724;51.094;6.996;2023-07-28T04:51:06;17.30;99.90
46976;DHT22;32724;51.094;6.996;2023-07-28T04:53:31;17.30;99.90
46976;DHT22;32724;51.094;6.996;2023-07-28T04:55:57;17.30;99.90
46976;DHT22;32724;51.094;6.996;2023-07-28T04:58:22;17.40;99.90
46976;DHT22;32724;51.094;6.996;2023-07-28T05:00:48;17.40;99.90
46976;DHT22;32724;51.094;6.996;2023-07-28T05:03:13;17.40;99.90
46976;DHT22;32724;51.094;6.996;2023-07-28T05:05:39;17.40;99.90
46976;DHT22;32724;51.094;6.996;2023-07-28T05:08:08;17.40;99.90
46976;DHT22;32724;51.094;6.996;2023-07-28T05:10:33;17.40;99.90
46976;DHT22;32724;51.094;6.996;2023-07-28T05:12:59;17.40;99.90
46976;DHT22;32724;51.094;6.996;2023-07-28T05:15:24;17.40;99.90
46976;DHT22;32724;51.094;6.996;2023-07-28T05:17:50;17.40;99.90
46976;DHT22;32724;51.094;6.996;2023-07-28T05:20:15;17.40;99.90
46976;DHT22;32724;51.094;6.996;2023-07-28T05:22:41;17.50;99.90
46976;DHT22;32724;51.094;6.996;2023-07-28T05:25:07;17.50;99.90
46976;DHT22;32724;51.094;6.996;2023-07-28T05:27:33;17.50;99.90
46976;DHT22;32724;51.094;6.996;2023-07-28T05:29:58;17.50;99.90
46976;DHT22;32724;51.094;6.996;2023-07-28T05:32:24;17.60;99.90
46976;DHT22;32724;51.094;6.996;2023-07-28T05:34:49;17.60;99.90
46976;DHT22;32724;51.094;6.996;2023-07-28T05:37:15;17.60;99.90
46976;DHT22;32724;51.094;6.996;2023-07-28T05:39:41;17.60;99.90
46976;DHT22;32724;51.094;6.996;2023-07-28T05:42:06;17.70;99.90
46976;DHT22;32724;51.094;6.996;2023-07-28T05:44:32;17.70;99.90
46976;DHT22;32724;51.094;6.996;2023-07-28T05:46:57;17.70;99.90
46976;DHT22;32724;51.094;6.996;2023-07-28T05:49:23;17.70;99.90
46976;DHT22;32724;51.094;6.996;2023-07-28T05:51:49;17.70;99.90
46976;DHT22;32724;51.094;6.996;2023-07-28T05:54:14;17.70;99.90
46976;DHT22;32724;51.094;6.996;2023-07-28T05:56:40;17.70;99.90
46976;DHT22;32724;51.094;6.996;2023-07-28T05:59:06;17.70;99.90
46976;DHT22;32724;51.094;6.996;2023-07-28T06:01:32;17.70;99.90
46976;DHT22;32724;51.094;6.996;2023-07-28T06:03:58;17.80;99.90
46976;DHT22;32724;51.094;6.996;2023-07-28T06:06:25;17.80;99.90
46976;DHT22;32724;51.094;6.996;2023-07-28T06:08:51;17.70;99.90
46976;DHT22;32724;51.094;6.996;2023-07-28T06:11:17;17.80;99.90
46976;DHT22;32724;51.094;6.996;2023-07-28T06:13:43;17.80;99.90
46976;DHT22;32724;51.094;6.996;2023-07-28T06:16:09;17.80;99.90
46976;DHT22;32724;51.094;6.996;2023-07-28T06:18:35;17.80;99.90
46976;DHT22;32724;51.094;6.996;2023-07-28T06:21:01;17.80;99.90
46976;DHT22;32724;51.094;6.996;2023-07-28T06:23:26;17.80;99.90
46976;DHT22;32724;51.094;6.996;2023-07-28T06:25:52;17.80;99.90
46976;DHT22;32724;51.094;6.996;2023-07-28T06:28:20;17.80;99.90
46976;DHT22;32724;51.094;6.996;2023-07-28T06:30:45;17.90;99.90
46976;DHT22;32724;51.094;6.996;2023-07-28T06:33:11;17.80;99.90
46976;DHT22;32724;51.094;6.996;2023-07-28T06:35:36;17.90;99.90
46976;DHT22;32724;51.094;6.996;2023-07-28T06:38:02;17.90;99.90
46976;DHT22;32724;51.094;6.996;2023-07-28T06:40:28;17.90;99.90
46976;DHT22;32724;51.094;6.996;2023-07-28T06:42:54;17.90;99.90
46976;DHT22;32724;51.094;6.996;2023-07-28T06:45:20;17.90;99.90
46976;DHT22;32724;51.094;6.996;2023-07-28T06:47:45;17.90;99.90
46976;DHT22;32724;51.094;6.996;2023-07-28T06:50:11;17.90;99.90
46976;DHT22;32724;51.094;6.996;2023-07-28T06:52:37;17.90;99.90
46976;DHT22;32724;51.094;6.996;2023-07-28T06:55:03;18.00;99.90
46976;DHT22;32724;51.094;6.996;2023-07-28T06:57:29;18.00;99.90
46976;DHT22;32724;51.094;6.996;2023-07-28T06:59:56;18.00;99.90
46976;DHT22;32724;51.094;6.996;2023-07-28T07:02:21;18.00;99.90
46976;DHT22;32724;51.094;6.996;2023-07-28T07:04:47;18.00;99.90
46976;DHT22;32724;51.094;6.996;2023-07-28T07:07:13;18.00;99.90
46976;DHT22;32724;51.094;6.996;2023-07-28T07:09:38;18.10;99.90
46976;DHT22;32724;51.094;6.996;2023-07-28T07:12:04;18.10;99.90
46976;DHT22;32724;51.094;6.996;2023-07-28T07:14:30;18.10;99.90
46976;DHT22;32724;51.094;6.996;2023-07-28T07:16:55;18.10;99.90
46976;DHT22;32724;51.094;6.996;2023-07-28T07:19:21;18.20;99.90
46976;DHT22;32724;51.094;6.996;2023-07-28T07:21:46;18.20;99.90
46976;DHT22;32724;51.094;6.996;2023-07-28T07:24:13;18.20;99.90
46976;DHT22;32724;51.094;6.996;2023-07-28T07:26:41;18.20;99.90
46976;DHT22;32724;51.094;6.996;2023-07-28T07:29:08;18.20;99.90
46976;DHT22;32724;51.094;6.996;2023-07-28T07:31:34;18.20;99.90
46976;DHT22;32724;51.094;6.996;2023-07-28T07:34:00;18.20;99.90
46976;DHT22;32724;51.094;6.996;2023-07-28T07:36:26;18.30;99.90
46976;DHT22;32724;51.094;6.996;2023-07-28T07:38:51;18.30;99.90
46976;DHT22;32724;51.094;6.996;2023-07-28T07:41:17;18.30;99.90
46976;DHT22;32724;51.094;6.996;2023-07-28T07:43:45;18.30;99.90
46976;DHT22;32724;51.094;6.996;2023-07-28T07:46:10;18.30;99.90
46976;DHT22;32724;51.094;6.996;2023-07-28T07:48:36;18.40;99.90
46976;DHT22;32724;51.094;6.996;2023-07-28T07:51:01;18.40;99.90
46976;DHT22;32724;51.094;6.996;2023-07-28T07:53:27;18.50;99.90
46976;DHT22;32724;51.094;6.996;2023-07-28T07:55:53;18.50;99.90
46976;DHT22;32724;51.094;6.996;2023-07-28T07:58:18;18.50;99.90
46976;DHT22;32724;51.094;6.996;2023-07-28T08:00:44;18.60;99.90
46976;DHT22;32724;51.094;6.996;2023-07-28T08:03:09;18.60;99.90
46976;DHT22;32724;51.094;6.996;2023-07-28T08:05:35;18.60;99.90
46976;DHT22;32724;51.094;6.996;2023-07-28T08:08:01;18.60;99.90
46976;DHT22;32724;51.094;6.996;2023-07-28T08:10:27;18.60;99.90
46976;DHT22;32724;51.094;6.996;2023-07-28T08:12:53;18.70;99.90
46976;DHT22;32724;51.094;6.996;2023-07-28T08:15:19;18.70;99.90
46976;DHT22;32724;51.094;6.996;2023-07-28T08:17:45;18.70;99.90
46976;DHT22;32724;51.094;6.996;2023-07-28T08:20:10;18.80;99.90
46976;DHT22;32724;51.094;6.996;2023-07-28T08:22:36;18.80;99.90
46976;DHT22;32724;51.094;6.996;2023-07-28T08:25:01;18.80;99.90
46976;DHT22;32724;51.094;6.996;2023-07-28T08:27:27;18.80;99.90
46976;DHT22;32724;51.094;6.996;2023-07-28T08:29:52;18.90;99.90
46976;DHT22;32724;51.094;6.996;2023-07-28T08:32:18;18.90;99.90
46976;DHT22;32724;51.094;6.996;2023-07-28T08:34:43;18.90;99.90
46976;DHT22;32724;51.094;6.996;2023-07-28T08:37:09;19.00;99.90
46976;DHT22;32724;51.094;6.996;2023-07-28T08:39:34;19.00;99.90
46976;DHT22;32724;51.094;6.996;2023-07-28T08:42:01;19.00;99.90
46976;DHT22;32724;51.094;6.996;2023-07-28T08:44:32;19.00;99.90
46976;DHT22;32724;51.094;6.996;2023-07-28T08:47:02;19.10;99.90
46976;DHT22;32724;51.094;6.996;2023-07-28T08:49:29;19.20;99.90
46976;DHT22;32724;51.094;6.996;2023-07-28T08:51:59;19.20;99.90
46976;DHT22;32724;51.094;6.996;2023-07-28T08:54:25;19.30;99.90
46976;DHT22;32724;51.094;6.996;2023-07-28T08:56:51;19.30;99.90
46976;DHT22;32724;51.094;6.996;2023-07-28T08:59:24;19.40;99.90
46976;DHT22;32724;51.094;6.996;2023-07-28T09:01:56;19.40;99.90
46976;DHT22;32724;51.094;6.996;2023-07-28T09:07:04;19.60;99.90
46976;DHT22;32724;51.094;6.996;2023-07-28T09:09:32;19.60;99.90
46976;DHT22;32724;51.094;6.996;2023-07-28T09:11:59;19.70;99.90
46976;DHT22;32724;51.094;6.996;2023-07-28T09:14:25;19.80;99.90
46976;DHT22;32724;51.094;6.996;2023-07-28T09:16:51;19.80;99.90
46976;DHT22;32724;51.094;6.996;2023-07-28T09:19:17;19.90;99.90
46976;DHT22;32724;51.094;6.996;2023-07-28T09:21:43;20.00;99.90
46976;DHT22;32724;51.094;6.996;2023-07-28T09:24:11;20.30;99.90
46976;DHT22;32724;51.094;6.996;2023-07-28T09:26:46;20.70;99.90
46976;DHT22;32724;51.094;6.996;2023-07-28T09:31:37;21.60;99.90
46976;DHT22;32724;51.094;6.996;2023-07-28T09:34:06;22.30;99.90
46976;DHT22;32724;51.094;6.996;2023-07-28T09:36:32;22.60;99.90
46976;DHT22;32724;51.094;6.996;2023-07-28T09:38:58;22.50;99.90
46976;DHT22;32724;51.094;6.996;2023-07-28T09:41:24;22.20;99.90
46976;DHT22;32724;51.094;6.996;2023-07-28T09:43:50;22.00;99.90
46976;DHT22;32724;51.094;6.996;2023-07-28T09:46:17;21.90;99.90
46976;DHT22;32724;51.094;6.996;2023-07-28T09:48:45;21.90;99.90
46976;DHT22;32724;51.094;6.996;2023-07-28T09:51:17;21.80;99.90
46976;DHT22;32724;51.094;6.996;2023-07-28T09:53:48;21.50;99.90
46976;DHT22;32724;51.094;6.996;2023-07-28T09:56:15;21.30;99.90
46976;DHT22;32724;51.094;6.996;2023-07-28T09:58:47;21.30;99.90
46976;DHT22;32724;51.094;6.996;2023-07-28T10:01:14;21.40;99.90
46976;DHT22;32724;51.094;6.996;2023-07-28T10:03:40;21.60;99.90
46976;DHT22;32724;51.094;6.996;2023-07-28T10:06:06;21.80;99.90
46976;DHT22;32724;51.094;6.996;2023-07-28T10:08:32;22.00;99.90
46976;DHT22;32724;51.094;6.996;2023-07-28T10:10:58;22.30;99.90
46976;DHT22;32724;51.094;6.996;2023-07-28T10:13:24;22.40;99.90
46976;DHT22;32724;51.094;6.996;2023-07-28T10:15:52;21.70;99.90
46976;DHT22;32724;51.094;6.996;2023-07-28T10:18:20;21.00;99.90
46976;DHT22;32724;51.094;6.996;2023-07-28T10:20:46;20.50;99.90
46976;DHT22;32724;51.094;6.996;2023-07-28T10:23:22;20.30;99.90
46976;DHT22;32724;51.094;6.996;2023-07-28T10:25:57;20.40;99.90
46976;DHT22;32724;51.094;6.996;2023-07-28T10:28:35;20.30;99.90
46976;DHT22;32724;51.094;6.996;2023-07-28T10:31:07;20.30;99.90
46976;DHT22;32724;51.094;6.996;2023-07-28T10:33:45;20.30;99.90
46976;DHT22;32724;51.094;6.996;2023-07-28T10:38:59;21.10;99.90
46976;DHT22;32724;51.094;6.996;2023-07-28T10:41:24;21.20;99.90
46976;DHT22;32724;51.094;6.996;2023-07-28T10:43:51;21.10;99.90
46976;DHT22;32724;51.094;6.996;2023-07-28T10:46:18;21.00;99.90
46976;DHT22;32724;51.094;6.996;2023-07-28T10:48:48;20.80;99.90
46976;DHT22;32724;51.094;6.996;2023-07-28T10:51:25;20.60;99.90
46976;DHT22;32724;51.094;6.996;2023-07-28T10:53:57;20.50;99.90
46976;DHT22;32724;51.094;6.996;2023-07-28T10:56:23;20.40;99.90
46976;DHT22;32724;51.094;6.996;2023-07-28T10:59:03;20.40;99.90
46976;DHT22;32724;51.094;6.996;2023-07-28T11:01:37;20.30;99.90
46976;DHT22;32724;51.094;6.996;2023-07-28T11:04:08;20.40;99.90
46976;DHT22;32724;51.094;6.996;2023-07-28T11:06:34;20.70;99.90
46976;DHT22;32724;51.094;6.996;2023-07-28T11:09:00;21.00;99.90
46976;DHT22;32724;51.094;6.996;2023-07-28T11:11:25;21.10;99.90
46976;DHT22;32724;51.094;6.996;2023-07-28T11:13:51;21.50;99.90
46976;DHT22;32724;51.094;6.996;2023-07-28T11:16:18;22.10;99.90
46976;DHT22;32724;51.094;6.996;2023-07-28T11:18:43;22.40;99.90
46976;DHT22;32724;51.094;6.996;2023-07-28T11:21:09;22.80;99.90
46976;DHT22;32724;51.094;6.996;2023-07-28T11:23:34;23.10;99.90
46976;DHT22;32724;51.094;6.996;2023-07-28T11:26:00;23.50;99.90
46976;DHT22;32724;51.094;6.996;2023-07-28T11:28:26;23.90;99.90
46976;DHT22;32724;51.094;6.996;2023-07-28T11:30:53;24.30;99.90
46976;DHT22;32724;51.094;6.996;2023-07-28T11:33:19;24.30;99.90
46976;DHT22;32724;51.094;6.996;2023-07-28T11:35:45;24.50;99.90
46976;DHT22;32724;51.094;6.996;2023-07-28T11:38:11;24.90;99.90
46976;DHT22;32724;51.094;6.996;2023-07-28T11:40:38;25.10;99.90
46976;DHT22;32724;51.094;6.996;2023-07-28T11:43:04;25.00;99.90
46976;DHT22;32724;51.094;6.996;2023-07-28T11:45:30;24.90;99.90
46976;DHT22;32724;51.094;6.996;2023-07-28T11:48:01;24.70;99.90
46976;DHT22;32724;51.094;6.996;2023-07-28T11:50:29;24.50;99.90
46976;DHT22;32724;51.094;6.996;2023-07-28T11:52:58;24.30;99.90
46976;DHT22;32724;51.094;6.996;2023-07-28T11:55:24;24.20;99.90
46976;DHT22;32724;51.094;6.996;2023-07-28T11:57:51;23.90;99.90
46976;DHT22;32724;51.094;6.996;2023-07-28T12:00:17;23.40;99.90
46976;DHT22;32724;51.094;6.996;2023-07-28T12:02:43;22.90;99.90
46976;DHT22;32724;51.094;6.996;2023-07-28T12:05:14;22.70;99.90
46976;DHT22;32724;51.094;6.996;2023-07-28T12:07:40;22.80;99.90
46976;DHT22;32724;51.094;6.996;2023-07-28T12:10:07;23.00;99.90
46976;DHT22;32724;51.094;6.996;2023-07-28T12:12:47;22.80;99.90
46976;DHT22;32724;51.094;6.996;2023-07-28T12:15:29;22.80;99.90
46976;DHT22;32724;51.094;6.996;2023-07-28T12:18:09;22.60;99.90
46976;DHT22;32724;51.094;6.996;2023-07-28T12:20:36;22.60;99.90
46976;DHT22;32724;51.094;6.996;2023-07-28T12:23:02;22.60;99.90
46976;DHT22;32724;51.094;6.996;2023-07-28T12:25:28;22.60;99.90
46976;DHT22;32724;51.094;6.996;2023-07-28T12:27:54;22.50;99.90
46976;DHT22;32724;51.094;6.996;2023-07-28T12:30:21;22.50;99.90
46976;DHT22;32724;51.094;6.996;2023-07-28T12:32:47;22.50;99.90
46976;DHT22;32724;51.094;6.996;2023-07-28T12:35:13;22.50;99.90
46976;DHT22;32724;51.094;6.996;2023-07-28T12:37:39;22.70;99.90
46976;DHT22;32724;51.094;6.996;2023-07-28T12:40:05;22.90;99.90
46976;DHT22;32724;51.094;6.996;2023-07-28T12:42:31;22.80;99.90
46976;DHT22;32724;51.094;6.996;2023-07-28T12:44:57;22.60;99.90
46976;DHT22;32724;51.094;6.996;2023-07-28T12:47:23;22.40;99.90
46976;DHT22;32724;51.094;6.996;2023-07-28T12:49:48;22.20;99.90
46976;DHT22;32724;51.094;6.996;2023-07-28T12:52:14;21.90;99.90
46976;DHT22;32724;51.094;6.996;2023-07-28T12:54:40;21.80;99.90
46976;DHT22;32724;51.094;6.996;2023-07-28T12:57:08;21.60;99.90
46976;DHT22;32724;51.094;6.996;2023-07-28T12:59:35;21.40;99.90
46976;DHT22;32724;51.094;6.996;2023-07-28T13:02:01;21.20;99.90
46976;DHT22;32724;51.094;6.996;2023-07-28T13:04:26;21.10;99.90
46976;DHT22;32724;51.094;6.996;2023-07-28T13:06:52;21.10;99.90
46976;DHT22;32724;51.094;6.996;2023-07-28T13:09:17;21.30;99.90
46976;DHT22;32724;51.094;6.996;2023-07-28T13:11:43;21.50;99.90
46976;DHT22;32724;51.094;6.996;2023-07-28T13:14:08;21.60;99.90
46976;DHT22;32724;51.094;6.996;2023-07-28T13:16:34;21.90;99.90
46976;DHT22;32724;51.094;6.996;2023-07-28T13:19:01;22.00;99.90
46976;DHT22;32724;51.094;6.996;2023-07-28T13:21:27;22.20;99.90
46976;DHT22;32724;51.094;6.996;2023-07-28T13:23:52;22.30;99.90
46976;DHT22;32724;51.094;6.996;2023-07-28T13:26:18;22.30;99.90
46976;DHT22;32724;51.094;6.996;2023-07-28T13:28:43;22.00;99.90
46976;DHT22;32724;51.094;6.996;2023-07-28T13:31:15;21.60;99.90
46976;DHT22;32724;51.094;6.996;2023-07-28T13:33:42;21.40;99.90
46976;DHT22;32724;51.094;6.996;2023-07-28T13:36:08;21.20;99.90
46976;DHT22;32724;51.094;6.996;2023-07-28T13:38:34;21.10;99.90
46976;DHT22;32724;51.094;6.996;2023-07-28T13:41:03;21.20;99.90
46976;DHT22;32724;51.094;6.996;2023-07-28T13:43:29;21.30;99.90
46976;DHT22;32724;51.094;6.996;2023-07-28T13:45:54;21.40;99.90
46976;DHT22;32724;51.094;6.996;2023-07-28T13:48:20;21.60;99.90
46976;DHT22;32724;51.094;6.996;2023-07-28T13:50:46;21.90;99.90
46976;DHT22;32724;51.094;6.996;2023-07-28T13:53:11;22.00;99.90
46976;DHT22;32724;51.094;6.996;2023-07-28T13:55:37;22.30;99.90
46976;DHT22;32724;51.094;6.996;2023-07-28T13:58:03;22.30;99.90
46976;DHT22;32724;51.094;6.996;2023-07-28T14:00:28;22.30;99.90
46976;DHT22;32724;51.094;6.996;2023-07-28T14:02:54;22.30;99.90
46976;DHT22;32724;51.094;6.996;2023-07-28T14:05:19;22.20;99.90
46976;DHT22;32724;51.094;6.996;2023-07-28T14:07:46;21.90;99.90
46976;DHT22;32724;51.094;6.996;2023-07-28T14:10:11;21.70;99.90
46976;DHT22;32724;51.094;6.996;2023-07-28T14:12:37;21.70;99.90
46976;DHT22;32724;51.094;6.996;2023-07-28T14:15:03;21.60;99.90
46976;DHT22;32724;51.094;6.996;2023-07-28T14:17:29;21.30;99.90
46976;DHT22;32724;51.094;6.996;2023-07-28T14:19:55;21.30;99.90
46976;DHT22;32724;51.094;6.996;2023-07-28T14:22:20;21.30;99.90
46976;DHT22;32724;51.094;6.996;2023-07-28T14:24:46;21.30;99.90
46976;DHT22;32724;51.094;6.996;2023-07-28T14:27:11;21.30;99.90
46976;DHT22;32724;51.094;6.996;2023-07-28T14:29:37;21.30;99.90
46976;DHT22;32724;51.094;6.996;2023-07-28T14:32:03;21.30;99.90
46976;DHT22;32724;51.094;6.996;2023-07-28T14:34:28;21.30;99.90
46976;DHT22;32724;51.094;6.996;2023-07-28T14:36:54;21.20;99.90
46976;DHT22;32724;51.094;6.996;2023-07-28T14:39:19;21.10;99.90
46976;DHT22;32724;51.094;6.996;2023-07-28T14:41:45;21.20;99.90
46976;DHT22;32724;51.094;6.996;2023-07-28T14:44:10;21.10;99.90
46976;DHT22;32724;51.094;6.996;2023-07-28T14:46:36;21.00;99.90
46976;DHT22;32724;51.094;6.996;2023-07-28T14:49:02;20.90;99.90
46976;DHT22;32724;51.094;6.996;2023-07-28T14:51:27;20.90;99.90
46976;DHT22;32724;51.094;6.996;2023-07-28T14:53:53;20.70;99.90
46976;DHT22;32724;51.094;6.996;2023-07-28T14:56:21;20.60;99.90
46976;DHT22;32724;51.094;6.996;2023-07-28T14:58:50;20.50;99.90
46976;DHT22;32724;51.094;6.996;2023-07-28T15:01:17;20.40;99.90
46976;DHT22;32724;51.094;6.996;2023-07-28T15:03:42;20.30;99.90
46976;DHT22;32724;51.094;6.996;2023-07-28T15:06:08;20.20;99.90
46976;DHT22;32724;51.094;6.996;2023-07-28T15:08:34;20.10;99.90
46976;DHT22;32724;51.094;6.996;2023-07-28T15:10:59;20.00;99.90
46976;DHT22;32724;51.094;6.996;2023-07-28T15:13:25;19.90;99.90
46976;DHT22;32724;51.094;6.996;2023-07-28T15:15:50;19.90;99.90
46976;DHT22;32724;51.094;6.996;2023-07-28T15:18:16;19.90;99.90
46976;DHT22;32724;51.094;6.996;2023-07-28T15:20:42;19.90;99.90
46976;DHT22;32724;51.094;6.996;2023-07-28T15:23:09;19.90;99.90
46976;DHT22;32724;51.094;6.996;2023-07-28T15:25:34;20.00;99.90
46976;DHT22;32724;51.094;6.996;2023-07-28T15:28:00;20.00;99.90
46976;DHT22;32724;51.094;6.996;2023-07-28T15:30:25;20.20;99.90
46976;DHT22;32724;51.094;6.996;2023-07-28T15:32:51;20.40;99.90
46976;DHT22;32724;51.094;6.996;2023-07-28T15:35:17;20.60;99.90
46976;DHT22;32724;51.094;6.996;2023-07-28T15:37:43;20.70;99.90